createdAt,value
2022-08-19T00:00:38.881Z,98752.97
2022-08-19T00:01:52.934Z,98751.31
2022-08-19T00:02:57.864Z,98752.59
2022-08-19T00:04:06.334Z,98751.75
2022-08-19T00:05:12.896Z,98749.44
2022-08-19T00:06:17.587Z,98751.94
2022-08-19T00:07:24.960Z,98751.31
2022-08-19T00:08:29.494Z,98745.06
2022-08-19T00:09:34.706Z,98750.50
2022-08-19T00:10:38.636Z,98748.81
2022-08-19T00:11:44.781Z,98754.66
2022-08-19T00:12:48.818Z,98760.94
2022-08-19T00:13:52.756Z,98759.06
2022-08-19T00:14:56.548Z,98760.09
2022-08-19T00:16:01.096Z,98753.22
2022-08-19T00:17:07.847Z,98751.97
2022-08-19T00:18:12.555Z,98751.56
2022-08-19T00:19:17.916Z,98754.28
2022-08-19T00:20:23.451Z,98749.91
2022-08-19T00:21:28.235Z,98755.53
2022-08-19T00:22:32.645Z,98749.06
2022-08-19T00:23:37.472Z,98754.28
2022-08-19T00:24:42.344Z,98751.78
2022-08-19T00:25:55.016Z,98746.31
2022-08-19T00:27:00.623Z,98739.03
2022-08-19T00:28:24.421Z,98749.69
2022-08-19T00:29:28.344Z,98751.75
2022-08-19T00:30:32.458Z,98748.63
2022-08-19T00:31:36.971Z,98753.44
2022-08-19T00:32:41.236Z,98754.25
2022-08-19T00:33:45.377Z,98753.44
2022-08-19T00:34:49.123Z,98750.72
2022-08-19T00:35:55.942Z,98748.00
2022-08-19T00:37:00.746Z,98723.38
2022-08-19T00:38:05.231Z,98733.81
2022-08-19T00:39:10.775Z,98750.09
2022-08-19T00:40:16.209Z,98744.44
2022-08-19T00:41:24.184Z,98750.94
2022-08-19T00:42:29.627Z,98746.94
2022-08-19T00:43:34.358Z,98755.31
2022-08-19T00:44:38.357Z,98751.53
2022-08-19T00:45:44.800Z,98746.56
2022-08-19T00:46:58.084Z,98748.00
2022-08-19T00:48:05.512Z,98752.38
2022-08-19T00:49:35.628Z,98752.19
2022-08-19T00:50:52.328Z,98745.06
2022-08-19T00:52:24.996Z,98753.44
2022-08-19T00:53:33.085Z,98748.84
2022-08-19T00:54:40.302Z,98742.78
2022-08-19T00:55:49.073Z,98749.66
2022-08-19T00:56:56.981Z,98759.50
2022-08-19T00:58:15.164Z,98746.94
2022-08-19T00:59:56.349Z,98734.25
2022-08-19T01:00:47.602Z,98740.50
2022-08-19T01:01:51.497Z,98742.56
2022-08-19T01:02:56.762Z,98750.94
2022-08-19T01:04:00.845Z,98748.84
2022-08-19T01:05:12.104Z,98743.00
2022-08-19T01:06:20.741Z,98743.63
2022-08-19T01:07:25.548Z,98741.75
2022-08-19T01:08:29.884Z,98722.13
2022-08-19T01:09:33.844Z,98734.66
2022-08-19T01:10:53.248Z,98734.66
2022-08-19T01:11:57.973Z,98730.25
2022-08-19T01:13:04.513Z,98732.56
2022-08-19T01:14:11.541Z,98740.72
2022-08-19T01:15:24.260Z,98739.03
2022-08-19T01:16:31.665Z,98738.19
2022-08-19T01:17:39.255Z,98730.47
2022-08-19T01:18:44.923Z,98728.38
2022-08-19T01:19:50.218Z,98728.38
2022-08-19T01:21:01.722Z,98704.38
2022-08-19T01:22:28.734Z,98722.13
2022-08-19T01:23:44.509Z,98717.53
2022-08-19T01:24:49.709Z,98715.84
2022-08-19T01:25:55.688Z,98706.88
2022-08-19T01:27:00.089Z,98710.66
2022-08-19T01:28:10.627Z,98711.47
2022-08-19T01:29:15.344Z,98704.59
2022-08-19T01:30:27.797Z,98707.50
2022-08-19T01:31:33.216Z,98707.50
2022-08-19T01:32:37.381Z,98714.81
2022-08-19T01:33:41.647Z,98706.03
2022-08-19T01:34:48.385Z,98717.53
2022-08-19T01:35:52.615Z,98721.94
2022-08-19T01:36:56.616Z,98709.81
2022-08-19T01:38:09.574Z,98709.59
2022-08-19T01:39:21.850Z,98709.59
2022-08-19T01:40:33.942Z,98711.25
2022-08-19T01:41:38.639Z,98703.34
2022-08-19T01:42:42.542Z,98705.00
2022-08-19T01:44:12.397Z,98703.78
2022-08-19T01:45:11.767Z,98701.25
2022-08-19T01:46:15.704Z,98700.41
2022-08-19T01:47:19.769Z,98702.50
2022-08-19T01:48:25.032Z,98701.44
2022-08-19T01:49:29.065Z,98705.00
2022-08-19T01:50:35.001Z,98706.03
2022-08-19T01:51:40.030Z,98707.91
2022-08-19T01:52:46.074Z,98707.91
2022-08-19T01:53:52.342Z,98709.78
2022-08-19T01:54:56.520Z,98714.59
2022-08-19T01:56:00.803Z,98716.69
2022-08-19T01:57:13.693Z,98710.59
2022-08-19T01:58:24.317Z,98719.59
2022-08-19T01:59:29.239Z,98712.28
2022-08-19T02:00:34.507Z,98731.28
2022-08-19T02:01:38.675Z,98716.69
2022-08-19T02:02:44.308Z,98724.34
2022-08-19T02:03:48.924Z,98709.97
2022-08-19T02:04:53.977Z,98728.13
2022-08-19T02:06:04.277Z,98719.16
2022-08-19T02:07:09.399Z,98717.06
2022-08-19T02:08:14.020Z,98715.38
2022-08-19T02:09:18.113Z,98709.13
2022-08-19T02:10:23.725Z,98684.31
2022-08-19T02:11:34.761Z,98712.88
2022-08-19T02:12:38.687Z,98713.72
2022-08-19T02:13:42.795Z,98714.56
2022-08-19T02:14:46.789Z,98721.88
2022-08-19T02:15:51.469Z,98712.88
2022-08-19T02:16:55.735Z,98698.91
2022-08-19T02:18:00.464Z,98709.09
2022-08-19T02:19:05.773Z,98716.19
2022-08-19T02:20:11.591Z,98705.78
2022-08-19T02:21:17.970Z,98705.34
2022-08-19T02:22:21.901Z,98701.41
2022-08-19T02:23:25.899Z,98706.16
2022-08-19T02:24:29.824Z,98695.34
2022-08-19T02:25:33.887Z,98699.91
2022-08-19T02:26:38.246Z,98699.03
2022-08-19T02:27:44.257Z,98702.19
2022-08-19T02:28:49.664Z,98693.63
2022-08-19T02:29:54.825Z,98700.28
2022-08-19T02:31:02.008Z,98697.78
2022-08-19T02:32:06.143Z,98691.50
2022-08-19T02:33:10.321Z,98691.09
2022-08-19T02:34:14.142Z,98693.56
2022-08-19T02:35:18.635Z,98696.06
2022-08-19T02:36:22.729Z,98698.56
2022-08-19T02:37:45.245Z,98696.06
2022-08-19T02:38:54.748Z,98700.88
2022-08-19T02:40:00.590Z,98699.38
2022-08-19T02:41:18.914Z,98707.09
2022-08-19T02:42:22.886Z,98708.75
2022-08-19T02:43:29.106Z,98703.75
2022-08-19T02:44:36.947Z,98705.16
2022-08-19T02:45:41.800Z,98714.59
2022-08-19T02:46:48.839Z,98706.56
2022-08-19T02:47:55.858Z,98710.31
2022-08-19T02:49:06.565Z,98716.38
2022-08-19T02:50:11.426Z,98715.31
2022-08-19T02:51:23.340Z,98715.53
2022-08-19T02:52:28.516Z,98710.75
2022-08-19T02:53:33.510Z,98704.69
2022-08-19T02:54:37.700Z,98701.34
2022-08-19T02:55:47.543Z,98708.22
2022-08-19T02:56:51.429Z,98706.53
2022-08-19T02:57:55.926Z,98709.66
2022-08-19T02:59:00.022Z,98708.63
2022-08-19T03:00:10.008Z,98709.88
2022-08-19T03:01:30.780Z,98714.00
2022-08-19T03:02:34.858Z,98718.41
2022-08-19T03:03:39.804Z,98713.19
2022-08-19T03:04:43.879Z,98719.25
2022-08-19T03:05:56.288Z,98688.31
2022-08-19T03:07:09.303Z,98712.34
2022-08-19T03:08:16.969Z,98728.00
2022-08-19T03:09:22.040Z,98724.03
2022-08-19T03:10:26.126Z,98713.38
2022-08-19T03:11:33.000Z,98730.28
2022-08-19T03:12:39.913Z,98732.16
2022-08-19T03:13:44.496Z,98733.84
2022-08-19T03:14:49.450Z,98729.66
2022-08-19T03:15:53.547Z,98734.47
2022-08-19T03:16:57.564Z,98726.09
2022-08-19T03:18:01.212Z,98726.28
2022-08-19T03:19:06.437Z,98729.00
2022-08-19T03:20:11.902Z,98728.38
2022-08-19T03:21:23.390Z,98727.34
2022-08-19T03:22:28.272Z,98726.72
2022-08-19T03:23:32.429Z,98730.09
2022-08-19T03:24:36.951Z,98733.41
2022-08-19T03:25:46.250Z,98734.25
2022-08-19T03:26:56.591Z,98722.13
2022-08-19T03:28:00.488Z,98741.78
2022-08-19T03:29:06.399Z,98729.25
2022-08-19T03:30:14.610Z,98737.38
2022-08-19T03:31:44.253Z,98730.13
2022-08-19T03:32:53.367Z,98734.66
2022-08-19T03:34:03.442Z,98732.81
2022-08-19T03:35:10.784Z,98720.50
2022-08-19T03:36:24.365Z,98714.00
2022-08-19T03:37:28.143Z,98730.94
2022-08-19T03:38:33.571Z,98730.13
2022-08-19T03:39:40.003Z,98726.38
2022-08-19T03:40:44.178Z,98724.50
2022-08-19T03:42:32.182Z,98734.66
2022-08-19T03:43:19.487Z,98711.72
2022-08-19T03:44:25.105Z,98735.13
2022-08-19T03:45:29.408Z,98718.00
2022-08-19T03:46:34.916Z,98739.28
2022-08-19T03:47:39.432Z,98736.78
2022-08-19T03:48:45.780Z,98737.63
2022-08-19T03:49:49.588Z,98736.78
2022-08-19T03:50:53.331Z,98739.28
2022-08-19T03:52:01.570Z,98725.13
2022-08-19T03:53:05.881Z,98732.19
2022-08-19T03:54:14.900Z,98741.63
2022-08-19T03:55:20.218Z,98738.69
2022-08-19T03:56:26.881Z,98739.53
2022-08-19T03:57:32.057Z,98749.97
2022-08-19T03:58:36.692Z,98743.69
2022-08-19T03:59:41.066Z,98749.81
2022-08-19T04:00:45.433Z,98746.06
2022-08-19T04:01:49.353Z,98741.69
2022-08-19T04:02:58.017Z,98738.97
2022-08-19T04:04:04.848Z,98732.31
2022-08-19T04:05:10.218Z,98720.56
2022-08-19T04:06:33.245Z,98733.75
2022-08-19T04:07:36.995Z,98717.66
2022-08-19T04:08:46.905Z,98726.69
2022-08-19T04:09:53.187Z,98727.09
2022-08-19T04:10:57.041Z,98725.84
2022-08-19T04:12:00.858Z,98725.84
2022-08-19T04:13:07.363Z,98725.84
2022-08-19T04:14:17.954Z,98721.81
2022-08-19T04:15:22.679Z,98734.38
2022-08-19T04:16:35.092Z,98721.03
2022-08-19T04:17:39.132Z,98723.34
2022-08-19T04:18:43.739Z,98725.22
2022-08-19T04:19:47.671Z,98726.06
2022-08-19T04:20:51.472Z,98727.72
2022-08-19T04:21:56.459Z,98724.81
2022-08-19T04:23:00.396Z,98724.19
2022-08-19T04:24:05.680Z,98728.34
2022-08-19T04:25:10.454Z,98733.38
2022-08-19T04:26:20.604Z,98737.53
2022-08-19T04:27:24.500Z,98724.38
2022-08-19T04:28:28.383Z,98731.25
2022-08-19T04:29:32.329Z,98742.34
2022-08-19T04:30:49.193Z,98734.41
2022-08-19T04:31:56.753Z,98732.97
2022-08-19T04:33:00.870Z,98731.09
2022-08-19T04:34:14.213Z,98735.00
2022-08-19T04:35:22.054Z,98728.31
2022-08-19T04:36:32.871Z,98726.88
2022-08-19T04:37:36.935Z,98724.38
2022-08-19T04:38:40.868Z,98726.06
2022-08-19T04:40:03.509Z,98733.72
2022-08-19T04:41:26.226Z,98740.16
2022-08-19T04:42:42.335Z,98743.91
2022-08-19T04:43:50.051Z,98741.19
2022-08-19T04:44:54.219Z,98753.53
2022-08-19T04:46:01.075Z,98749.75
2022-08-19T04:47:11.383Z,98751.69
2022-08-19T04:48:26.684Z,98757.72
2022-08-19T04:49:31.718Z,98756.94
2022-08-19T04:50:36.139Z,98761.94
2022-08-19T04:51:44.230Z,98761.97
2022-08-19T04:52:48.216Z,98755.09
2022-08-19T04:53:53.620Z,98758.44
2022-08-19T04:54:57.411Z,98772.22
2022-08-19T04:56:11.825Z,98770.16
2022-08-19T04:57:16.448Z,98770.34
2022-08-19T04:58:20.521Z,98772.03
2022-08-19T04:59:27.083Z,98776.16
2022-08-19T05:00:31.397Z,98776.13
2022-08-19T05:01:39.578Z,98786.59
2022-08-19T05:02:44.746Z,98778.25
2022-08-19T05:03:48.870Z,98768.66
2022-08-19T05:05:00.002Z,98776.59
2022-08-19T05:06:11.747Z,98775.81
2022-08-19T05:07:15.457Z,98776.22
2022-08-19T05:08:31.243Z,98773.94
2022-08-19T05:09:58.411Z,98784.38
2022-08-19T05:11:00.240Z,98777.53
2022-08-19T05:12:05.178Z,98787.72
2022-08-19T05:13:10.316Z,98784.59
2022-08-19T05:14:14.185Z,98775.19
2022-08-19T05:15:18.310Z,98784.81
2022-08-19T05:16:24.837Z,98785.84
2022-08-19T05:17:33.301Z,98787.97
2022-08-19T05:18:57.738Z,98786.31
2022-08-19T05:20:20.906Z,98779.25
2022-08-19T05:21:44.555Z,98778.66
2022-08-19T05:22:49.652Z,98780.75
2022-08-19T05:23:53.767Z,98775.13
2022-08-19T05:25:12.251Z,98779.91
2022-08-19T05:26:17.323Z,98786.00
2022-08-19T05:27:21.227Z,98784.13
2022-08-19T05:28:25.521Z,98779.53
2022-08-19T05:29:35.544Z,98782.88
2022-08-19T05:30:47.253Z,98773.69
2022-08-19T05:31:53.199Z,98772.84
2022-08-19T05:32:57.219Z,98777.06
2022-08-19T05:34:01.609Z,98783.72
2022-08-19T05:35:07.488Z,98784.13
2022-08-19T05:36:12.540Z,98788.28
2022-08-19T05:37:16.801Z,98784.53
2022-08-19T05:38:21.364Z,98784.72
2022-08-19T05:39:31.076Z,98783.84
2022-08-19T05:40:37.545Z,98780.72
2022-08-19T05:41:51.111Z,98774.41
2022-08-19T05:42:56.232Z,98774.53
2022-08-19T05:44:07.024Z,98777.41
2022-08-19T05:45:12.768Z,98771.28
2022-08-19T05:46:27.986Z,98770.59
2022-08-19T05:47:33.987Z,98772.66
2022-08-19T05:48:38.115Z,98775.13
2022-08-19T05:49:43.226Z,98780.06
2022-08-19T05:50:47.924Z,98774.56
2022-08-19T05:51:53.461Z,98772.81
2022-08-19T05:52:57.688Z,98783.19
2022-08-19T05:54:04.019Z,98777.25
2022-08-19T05:55:08.951Z,98779.72
2022-08-19T05:56:17.747Z,98759.16
2022-08-19T05:57:26.604Z,98778.28
2022-08-19T05:58:30.898Z,98778.94
2022-08-19T05:59:36.625Z,98780.09
2022-08-19T06:00:46.235Z,98779.53
2022-08-19T06:01:55.573Z,98777.47
2022-08-19T06:03:00.837Z,98780.88
2022-08-19T06:04:14.935Z,98768.13
2022-08-19T06:05:19.088Z,98762.34
2022-08-19T06:06:23.436Z,98770.81
2022-08-19T06:07:27.937Z,98768.84
2022-08-19T06:08:35.137Z,98771.84
2022-08-19T06:09:50.838Z,98758.09
2022-08-19T06:11:24.790Z,98778.56
2022-08-19T06:12:34.075Z,98777.50
2022-08-19T06:13:38.147Z,98770.22
2022-08-19T06:14:42.744Z,98769.16
2022-08-19T06:15:48.191Z,98769.13
2022-08-19T06:16:56.106Z,98769.03
2022-08-19T06:17:59.974Z,98770.81
2022-08-19T06:19:09.040Z,98763.41
2022-08-19T06:20:18.768Z,98771.44
2022-08-19T06:21:28.902Z,98764.63
2022-08-19T06:22:39.233Z,98780.50
2022-08-19T06:23:43.420Z,98771.03
2022-08-19T06:24:47.595Z,98781.28
2022-08-19T06:25:51.832Z,98781.69
2022-08-19T06:27:00.997Z,98776.41
2022-08-19T06:28:15.110Z,98777.38
2022-08-19T06:29:24.215Z,98782.75
2022-08-19T06:30:29.136Z,98774.59
2022-08-19T06:31:36.065Z,98772.72
2022-08-19T06:32:42.875Z,98781.00
2022-08-19T06:33:48.776Z,98785.94
2022-08-19T06:34:54.191Z,98784.78
2022-08-19T06:35:58.188Z,98776.97
2022-08-19T06:37:04.599Z,98777.69
2022-08-19T06:38:10.549Z,98775.34
2022-08-19T06:39:20.603Z,98776.06
2022-08-19T06:40:25.357Z,98779.66
2022-08-19T06:41:31.658Z,98786.03
2022-08-19T06:42:36.848Z,98790.16
2022-08-19T06:43:44.400Z,98787.84
2022-08-19T06:44:53.253Z,98784.75
2022-08-19T06:45:57.989Z,98788.41
2022-08-19T06:47:14.219Z,98796.31
2022-08-19T06:48:19.977Z,98794.81
2022-08-19T06:49:26.242Z,98787.75
2022-08-19T06:50:30.722Z,98790.03
2022-08-19T06:51:35.523Z,98778.59
2022-08-19T06:52:48.963Z,98796.44
2022-08-19T06:53:56.710Z,98793.34
2022-08-19T06:55:02.096Z,98789.66
2022-08-19T06:56:11.139Z,98790.41
2022-08-19T06:57:16.205Z,98796.13
2022-08-19T06:58:20.373Z,98791.53
2022-08-19T06:59:30.042Z,98801.06
2022-08-19T07:00:36.112Z,98808.88
2022-08-19T07:01:51.678Z,98805.00
2022-08-19T07:03:00.104Z,98805.22
2022-08-19T07:04:12.060Z,98818.31
2022-08-19T07:05:18.398Z,98808.00
2022-08-19T07:06:44.096Z,98814.09
2022-08-19T07:07:51.205Z,98818.81
2022-08-19T07:08:55.162Z,98815.13
2022-08-19T07:10:02.733Z,98822.09
2022-08-19T07:11:14.054Z,98820.56
2022-08-19T07:12:18.273Z,98827.38
2022-08-19T07:13:28.087Z,98812.91
2022-08-19T07:14:31.947Z,98816.66
2022-08-19T07:15:39.825Z,98816.69
2022-08-19T07:16:44.512Z,98811.34
2022-08-19T07:17:52.395Z,98797.41
2022-08-19T07:19:00.531Z,98787.88
2022-08-19T07:20:16.970Z,98809.94
2022-08-19T07:21:29.478Z,98811.53
2022-08-19T07:22:33.879Z,98814.75
2022-08-19T07:24:51.168Z,98816.09
2022-08-19T07:25:55.696Z,98813.16
2022-08-19T07:27:04.444Z,98807.47
2022-08-19T07:28:24.139Z,98815.47
2022-08-19T07:29:31.592Z,98785.28
2022-08-19T07:30:39.299Z,98811.41
2022-08-19T07:31:44.543Z,98813.53
2022-08-19T07:32:49.406Z,98804.03
2022-08-19T07:33:58.079Z,98809.41
2022-08-19T07:35:04.854Z,98806.78
2022-08-19T07:36:13.939Z,98812.19
2022-08-19T07:37:18.206Z,98809.50
2022-08-19T07:38:22.430Z,98814.09
2022-08-19T07:39:32.398Z,98812.94
2022-08-19T07:40:36.189Z,98807.72
2022-08-19T07:41:41.164Z,98811.25
2022-08-19T07:42:47.293Z,98815.00
2022-08-19T07:43:51.781Z,98815.72
2022-08-19T07:44:55.775Z,98821.56
2022-08-19T07:45:59.956Z,98815.97
2022-08-19T07:47:06.711Z,98814.16
2022-08-19T07:48:11.601Z,98820.13
2022-08-19T07:49:20.337Z,98814.69
2022-08-19T07:50:24.164Z,98815.53
2022-08-19T07:51:36.428Z,98817.19
2022-08-19T07:52:41.583Z,98824.34
2022-08-19T07:53:47.803Z,98822.59
2022-08-19T07:54:53.817Z,98826.00
2022-08-19T07:56:04.827Z,98826.06
2022-08-19T07:57:09.995Z,98822.31
2022-08-19T07:58:17.625Z,98821.72
2022-08-19T07:59:24.109Z,98825.47
2022-08-19T08:00:28.462Z,98829.66
2022-08-19T08:01:33.173Z,98832.38
2022-08-19T08:02:45.884Z,98828.28
2022-08-19T08:04:12.556Z,98837.34
2022-08-19T08:05:35.693Z,98827.50
2022-08-19T08:06:58.891Z,98834.66
2022-08-19T08:08:22.802Z,98834.03
2022-08-19T08:09:41.378Z,98841.13
2022-08-19T08:10:53.086Z,98837.81
2022-08-19T08:12:33.170Z,98837.31
2022-08-19T08:13:39.088Z,98846.16
2022-08-19T08:14:50.750Z,98825.41
2022-08-19T08:15:59.974Z,98838.03
2022-08-19T08:17:10.969Z,98831.47
2022-08-19T08:18:15.223Z,98833.78
2022-08-19T08:19:25.805Z,98844.16
2022-08-19T08:20:30.714Z,98842.78
2022-08-19T08:21:36.141Z,98837.78
2022-08-19T08:23:04.559Z,98841.97
2022-08-19T08:24:09.057Z,98839.00
2022-08-19T08:25:21.633Z,98841.94
2022-08-19T08:26:26.995Z,98843.94
2022-08-19T08:27:37.930Z,98830.34
2022-08-19T08:28:42.109Z,98835.34
2022-08-19T08:29:52.416Z,98845.50
2022-08-19T08:30:56.810Z,98831.91
2022-08-19T08:32:01.341Z,98835.31
2022-08-19T08:33:05.703Z,98843.22
2022-08-19T08:34:12.179Z,98843.31
2022-08-19T08:35:23.175Z,98834.41
2022-08-19T08:36:28.589Z,98844.91
2022-08-19T08:37:32.601Z,98848.38
2022-08-19T08:38:41.320Z,98851.53
2022-08-19T08:39:45.536Z,98832.41
2022-08-19T08:41:32.940Z,98837.59
2022-08-19T08:42:52.364Z,98839.00
2022-08-19T08:43:58.506Z,98845.66
2022-08-19T08:45:16.456Z,98842.28
2022-08-19T08:46:39.428Z,98832.69
2022-08-19T08:47:53.596Z,98839.47
2022-08-19T08:49:33.993Z,98836.06
2022-08-19T08:50:48.060Z,98830.81
2022-08-19T08:52:06.816Z,98838.53
2022-08-19T08:53:29.873Z,98832.13
2022-08-19T08:54:49.029Z,98831.41
2022-08-19T08:56:04.483Z,98829.19
2022-08-19T08:57:36.961Z,98816.78
2022-08-19T08:59:09.701Z,98829.91
2022-08-19T09:00:41.368Z,98833.97
2022-08-19T09:01:45.564Z,98824.84
2022-08-19T09:02:50.737Z,98829.94
2022-08-19T09:03:56.293Z,98809.31
2022-08-19T09:05:10.424Z,98813.50
2022-08-19T09:07:18.533Z,98830.00
2022-08-19T09:08:50.904Z,98819.97
2022-08-19T09:10:16.754Z,98816.59
2022-08-19T09:12:04.620Z,98815.88
2022-08-19T09:13:37.355Z,98816.34
2022-08-19T09:15:04.667Z,98815.59
2022-08-19T09:16:27.988Z,98820.13
2022-08-19T09:17:36.426Z,98814.44
2022-08-19T09:18:49.957Z,98810.34
2022-08-19T09:20:09.083Z,98823.97
2022-08-19T09:21:17.303Z,98829.88
2022-08-19T09:22:25.814Z,98827.31
2022-08-19T09:23:31.128Z,98826.66
2022-08-19T09:24:40.938Z,98818.66
2022-08-19T09:25:44.656Z,98805.13
2022-08-19T09:26:52.831Z,98813.41
2022-08-19T09:28:02.523Z,98816.47
2022-08-19T09:29:08.563Z,98809.78
2022-08-19T09:30:23.326Z,98814.94
2022-08-19T09:31:31.131Z,98804.75
2022-08-19T09:32:35.075Z,98804.94
2022-08-19T09:33:40.022Z,98801.06
2022-08-19T09:34:46.753Z,98791.00
2022-08-19T09:36:08.462Z,98799.69
2022-08-19T09:37:17.084Z,98803.19
2022-08-19T09:38:23.031Z,98803.31
2022-08-19T09:39:27.468Z,98800.00
2022-08-19T09:40:40.907Z,98796.88
2022-08-19T09:41:47.283Z,98793.22
2022-08-19T09:42:54.203Z,98803.53
2022-08-19T09:43:59.945Z,98790.56
2022-08-19T09:45:06.094Z,98800.97
2022-08-19T09:46:18.348Z,98796.75
2022-08-19T09:47:22.396Z,98798.84
2022-08-19T09:48:27.733Z,98794.53
2022-08-19T09:49:36.155Z,98783.34
2022-08-19T09:50:51.853Z,98790.69
2022-08-19T09:51:57.364Z,98799.94
2022-08-19T09:53:01.444Z,98781.78
2022-08-19T09:54:06.480Z,98793.78
2022-08-19T09:55:13.077Z,98790.84
2022-08-19T09:56:20.818Z,98788.75
2022-08-19T09:57:25.025Z,98787.16
2022-08-19T09:58:30.544Z,98785.28
2022-08-19T09:59:35.606Z,98788.09
2022-08-19T10:00:39.717Z,98789.53
2022-08-19T10:01:44.042Z,98784.56
2022-08-19T10:02:48.106Z,98781.84
2022-08-19T10:03:57.419Z,98765.63
2022-08-19T10:05:26.620Z,98774.16
2022-08-19T10:06:46.368Z,98769.06
2022-08-19T10:07:51.930Z,98771.59
2022-08-19T10:08:55.828Z,98771.06
2022-08-19T10:09:59.722Z,98772.19
2022-08-19T10:11:27.540Z,98765.63
2022-08-19T10:12:31.357Z,98771.13
2022-08-19T10:13:36.183Z,98772.81
2022-08-19T10:14:40.222Z,98753.88
2022-08-19T10:15:48.196Z,98775.94
2022-08-19T10:16:53.525Z,98773.78
2022-08-19T10:17:58.776Z,98773.19
2022-08-19T10:19:03.688Z,98772.09
2022-08-19T10:20:10.984Z,98762.47
2022-08-19T10:21:21.530Z,98770.19
2022-08-19T10:22:26.471Z,98764.94
2022-08-19T10:23:30.721Z,98762.19
2022-08-19T10:24:37.918Z,98764.94
2022-08-19T10:25:43.479Z,98767.47
2022-08-19T10:26:56.030Z,98755.91
2022-08-19T10:28:03.021Z,98758.13
2022-08-19T10:29:09.316Z,98762.81
2022-08-19T10:30:14.799Z,98759.25
2022-08-19T10:32:01.983Z,98754.56
2022-08-19T10:32:49.186Z,98753.44
2022-08-19T10:33:58.874Z,98754.84
2022-08-19T10:35:09.733Z,98756.25
2022-08-19T10:36:21.440Z,98756.78
2022-08-19T10:37:31.417Z,98750.72
2022-08-19T10:38:37.389Z,98754.59
2022-08-19T10:39:43.473Z,98754.34
2022-08-19T10:40:47.533Z,98759.28
2022-08-19T10:41:51.442Z,98757.38
2022-08-19T10:42:56.873Z,98760.94
2022-08-19T10:44:08.380Z,98768.41
2022-08-19T10:45:13.166Z,98754.34
2022-08-19T10:46:17.824Z,98772.22
2022-08-19T10:47:26.127Z,98766.44
2022-08-19T10:48:36.482Z,98770.84
2022-08-19T10:50:00.303Z,98759.53
2022-08-19T10:51:24.102Z,98770.28
2022-08-19T10:52:38.845Z,98760.91
2022-08-19T10:53:43.966Z,98768.09
2022-08-19T10:55:08.605Z,98762.56
2022-08-19T10:56:31.184Z,98759.53
2022-08-19T10:58:04.152Z,98760.91
2022-08-19T10:58:59.819Z,98758.16
2022-08-19T11:00:05.981Z,98765.34
2022-08-19T11:01:10.603Z,98765.06
2022-08-19T11:02:14.863Z,98770.28
2022-08-19T11:03:19.964Z,98766.69
2022-08-19T11:04:28.775Z,98763.41
2022-08-19T11:05:36.464Z,98765.88
2022-08-19T11:06:48.589Z,98771.91
2022-08-19T11:07:53.202Z,98763.38
2022-08-19T11:08:57.698Z,98761.44
2022-08-19T11:10:01.514Z,98765.03
2022-08-19T11:11:08.128Z,98768.63
2022-08-19T11:12:13.724Z,98750.97
2022-08-19T11:13:17.510Z,98755.38
2022-08-19T11:14:23.492Z,98754.03
2022-08-19T11:15:30.877Z,98750.13
2022-08-19T11:16:35.238Z,98756.47
2022-08-19T11:17:42.929Z,98737.75
2022-08-19T11:18:52.361Z,98741.63
2022-08-19T11:19:56.462Z,98747.34
2022-08-19T11:21:34.843Z,98736.59
2022-08-19T11:22:41.638Z,98734.94
2022-08-19T11:23:47.936Z,98742.66
2022-08-19T11:24:51.708Z,98742.38
2022-08-19T11:25:55.639Z,98740.44
2022-08-19T11:27:12.934Z,98731.63
2022-08-19T11:28:16.943Z,98732.75
2022-08-19T11:29:44.691Z,98730.53
2022-08-19T11:30:50.163Z,98706.00
2022-08-19T11:31:54.947Z,98736.06
2022-08-19T11:32:58.802Z,98732.72
2022-08-19T11:34:06.639Z,98731.34
2022-08-19T11:35:12.370Z,98728.31
2022-08-19T11:36:17.423Z,98717.84
2022-08-19T11:37:21.388Z,98723.91
2022-08-19T11:38:25.405Z,98730.81
2022-08-19T11:39:32.457Z,98724.19
2022-08-19T11:40:36.473Z,98719.50
2022-08-19T11:41:41.201Z,98718.13
2022-08-19T11:42:57.325Z,98732.47
2022-08-19T11:44:01.543Z,98725.31
2022-08-19T11:45:06.375Z,98723.38
2022-08-19T11:46:15.269Z,98723.09
2022-08-19T11:47:20.316Z,98715.09
2022-08-19T11:48:25.710Z,98714.81
2022-08-19T11:49:31.858Z,98701.31
2022-08-19T11:50:36.905Z,98708.78
2022-08-19T11:51:43.181Z,98708.78
2022-08-19T11:52:47.874Z,98711.78
2022-08-19T11:53:55.073Z,98699.94
2022-08-19T11:54:58.882Z,98720.63
2022-08-19T11:56:04.062Z,98723.63
2022-08-19T11:57:07.786Z,98716.22
2022-08-19T11:58:18.920Z,98702.97
2022-08-19T11:59:23.427Z,98720.06
2022-08-19T12:00:27.882Z,98718.97
2022-08-19T12:01:33.919Z,98723.66
2022-08-19T12:02:38.582Z,98730.53
2022-08-19T12:03:43.065Z,98727.22
2022-08-19T12:04:47.221Z,98732.72
2022-08-19T12:05:52.472Z,98727.75
2022-08-19T12:06:56.629Z,98736.00
2022-08-19T12:08:00.535Z,98724.75
2022-08-19T12:09:09.664Z,98733.84
2022-08-19T12:10:13.950Z,98728.88
2022-08-19T12:11:24.299Z,98726.41
2022-08-19T12:12:29.259Z,98733.56
2022-08-19T12:13:33.330Z,98729.44
2022-08-19T12:14:37.862Z,98738.75
2022-08-19T12:15:42.699Z,98715.34
2022-08-19T12:16:49.120Z,98726.09
2022-08-19T12:17:58.334Z,98735.47
2022-08-19T12:19:05.723Z,98729.41
2022-08-19T12:20:14.866Z,98726.38
2022-08-19T12:21:29.400Z,98721.41
2022-08-19T12:22:33.315Z,98717.84
2022-08-19T12:23:38.609Z,98724.16
2022-08-19T12:24:42.527Z,98720.59
2022-08-19T12:25:52.969Z,98727.50
2022-08-19T12:26:59.052Z,98719.78
2022-08-19T12:28:05.675Z,98721.97
2022-08-19T12:29:09.685Z,98726.91
2022-08-19T12:30:15.752Z,98710.38
2022-08-19T12:31:20.799Z,98713.94
2022-08-19T12:32:25.919Z,98727.19
2022-08-19T12:33:29.808Z,98725.00
2022-08-19T12:34:34.193Z,98719.50
2022-08-19T12:35:48.075Z,98720.31
2022-08-19T12:36:51.721Z,98715.66
2022-08-19T12:37:57.303Z,98723.09
2022-08-19T12:39:01.872Z,98716.72
2022-08-19T12:40:08.012Z,98715.66
2022-08-19T12:41:18.892Z,98715.09
2022-08-19T12:42:23.834Z,98711.78
2022-08-19T12:43:31.929Z,98699.94
2022-08-19T12:44:38.270Z,98703.53
2022-08-19T12:45:46.137Z,98709.84
2022-08-19T12:46:50.974Z,98709.63
2022-08-19T12:47:57.850Z,98704.66
2022-08-19T12:49:12.187Z,98712.38
2022-08-19T12:50:27.165Z,98715.38
2022-08-19T12:51:32.720Z,98696.91
2022-08-19T12:52:38.376Z,98709.84
2022-08-19T12:53:42.665Z,98702.41
2022-08-19T12:54:46.623Z,98708.47
2022-08-19T12:56:01.094Z,98691.41
2022-08-19T12:57:11.723Z,98702.16
2022-08-19T12:58:15.865Z,98687.25
2022-08-19T12:59:20.044Z,98700.75
2022-08-19T13:00:24.755Z,98705.72
2022-08-19T13:01:32.268Z,98679.25
2022-08-19T13:02:38.893Z,98710.94
2022-08-19T13:03:45.918Z,98699.66
2022-08-19T13:04:50.394Z,98704.06
2022-08-19T13:05:55.091Z,98701.84
2022-08-19T13:06:59.947Z,98702.97
2022-08-19T13:08:04.626Z,98693.56
2022-08-19T13:09:08.760Z,98710.94
2022-08-19T13:10:19.004Z,98712.31
2022-08-19T13:11:25.659Z,98709.03
2022-08-19T13:12:29.533Z,98707.38
2022-08-19T13:13:33.572Z,98694.13
2022-08-19T13:14:37.451Z,98707.38
2022-08-19T13:15:46.302Z,98702.41
2022-08-19T13:16:50.350Z,98712.03
2022-08-19T13:17:56.599Z,98701.59
2022-08-19T13:19:03.999Z,98703.25
2022-08-19T13:20:12.336Z,98695.25
2022-08-19T13:21:16.394Z,98694.69
2022-08-19T13:22:20.318Z,98683.69
2022-08-19T13:23:24.439Z,98690.84
2022-08-19T13:24:33.891Z,98688.63